createdAt,value
2023-10-30T00:00:00.249Z,0.00
2023-10-30T00:01:00.281Z,0.00
2023-10-30T00:02:00.225Z,0.00
2023-10-30T00:03:00.325Z,0.00
2023-10-30T00:04:00.336Z,0.00
2023-10-30T00:05:00.205Z,0.00
2023-10-30T00:06:00.224Z,0.00
2023-10-30T00:07:00.184Z,0.00
2023-10-30T00:08:00.173Z,0.00
2023-10-30T00:09:00.167Z,0.00
2023-10-30T00:10:00.211Z,0.00
2023-10-30T00:11:00.157Z,0.00
2023-10-30T00:12:00.139Z,0.00
2023-10-30T00:13:00.118Z,0.00
2023-10-30T00:14:00.107Z,0.00
2023-10-30T00:15:00.123Z,0.00
2023-10-30T00:16:00.118Z,0.00
2023-10-30T00:17:00.108Z,0.00
2023-10-30T00:18:00.107Z,0.00
2023-10-30T00:19:00.056Z,0.00
2023-10-30T00:20:00.073Z,0.00
2023-10-30T00:21:00.052Z,0.00
2023-10-30T00:22:00.025Z,0.00
2023-10-30T00:23:00.018Z,0.00
2023-10-30T00:24:00.017Z,0.00
2023-10-30T00:25:00.009Z,0.00
2023-10-30T00:25:59.974Z,0.00
2023-10-30T00:26:59.972Z,0.00
2023-10-30T00:27:59.956Z,0.00
2023-10-30T00:28:59.965Z,0.00
2023-10-30T00:29:59.942Z,0.00
2023-10-30T00:30:59.934Z,0.00
2023-10-30T00:31:59.911Z,0.00
2023-10-30T00:32:59.952Z,0.00
2023-10-30T00:33:59.913Z,0.00
2023-10-30T00:34:59.897Z,0.00
2023-10-30T00:35:59.868Z,0.00
2023-10-30T00:36:59.868Z,0.00
2023-10-30T00:37:59.864Z,0.00
2023-10-30T00:38:59.866Z,0.00
2023-10-30T00:39:59.829Z,0.00
2023-10-30T00:40:59.827Z,0.00
2023-10-30T00:41:59.811Z,0.00
2023-10-30T00:42:59.830Z,0.00
2023-10-30T00:43:59.791Z,0.00
2023-10-30T00:44:59.805Z,0.00
2023-10-30T00:45:59.764Z,0.00
2023-10-30T00:46:59.762Z,0.00
2023-10-30T00:47:59.824Z,0.00
2023-10-30T00:48:59.742Z,0.00
2023-10-30T00:49:59.730Z,0.00
2023-10-30T00:50:59.722Z,0.00
2023-10-30T00:51:59.723Z,0.00
2023-10-30T00:52:59.714Z,0.00
2023-10-30T00:53:59.690Z,0.00
2023-10-30T00:54:59.682Z,0.00
2023-10-30T00:55:59.672Z,0.00
2023-10-30T00:56:59.678Z,0.00
2023-10-30T00:57:59.641Z,0.00
2023-10-30T00:58:59.634Z,0.00
2023-10-30T00:59:59.617Z,0.00
2023-10-30T01:00:59.616Z,0.00
2023-10-30T01:01:59.648Z,0.00
2023-10-30T01:02:59.732Z,0.00
2023-10-30T01:03:59.876Z,0.00
2023-10-30T01:04:59.884Z,0.00
2023-10-30T01:05:59.574Z,0.00
2023-10-30T01:06:59.577Z,0.00
2023-10-30T01:07:59.535Z,0.00
2023-10-30T01:08:59.533Z,0.00
2023-10-30T01:09:59.516Z,0.00
2023-10-30T01:10:59.535Z,0.00
2023-10-30T01:11:59.533Z,0.00
2023-10-30T01:12:59.488Z,0.00
2023-10-30T01:13:59.473Z,0.00
2023-10-30T01:14:59.469Z,0.00
2023-10-30T01:15:59.476Z,0.00
2023-10-30T01:16:59.448Z,0.00
2023-10-30T01:17:59.488Z,0.00
2023-10-30T01:18:59.438Z,0.00
2023-10-30T01:19:59.427Z,0.00
2023-10-30T01:20:59.414Z,0.00
2023-10-30T01:21:59.389Z,0.00
2023-10-30T01:22:59.382Z,0.00
2023-10-30T01:23:59.371Z,0.00
2023-10-30T01:24:59.377Z,0.00
2023-10-30T01:25:59.343Z,0.00
2023-10-30T01:26:59.347Z,0.00
2023-10-30T01:27:59.325Z,0.00
2023-10-30T01:28:59.316Z,0.00
2023-10-30T01:29:59.328Z,0.00
2023-10-30T01:30:59.310Z,0.00
2023-10-30T01:31:59.286Z,0.00
2023-10-30T01:32:59.374Z,0.00
2023-10-30T01:33:59.338Z,0.00
2023-10-30T01:34:59.319Z,0.00
2023-10-30T01:35:59.236Z,0.00
2023-10-30T01:36:59.229Z,0.00
2023-10-30T01:37:59.220Z,0.00
2023-10-30T01:38:59.230Z,0.00
2023-10-30T01:39:59.198Z,0.00
2023-10-30T01:40:59.194Z,0.00
2023-10-30T01:41:59.176Z,0.00
2023-10-30T01:42:59.186Z,0.00
2023-10-30T01:43:59.168Z,0.00
2023-10-30T01:44:59.205Z,0.00
2023-10-30T01:45:59.130Z,0.00
2023-10-30T01:46:59.125Z,0.00
2023-10-30T01:47:59.190Z,0.00
2023-10-30T01:48:59.137Z,0.00
2023-10-30T01:49:59.125Z,0.00
2023-10-30T01:50:59.092Z,0.00
2023-10-30T01:51:59.080Z,0.00
2023-10-30T01:52:59.080Z,0.00
2023-10-30T01:53:59.048Z,0.00
2023-10-30T01:54:59.048Z,0.00
2023-10-30T01:55:59.038Z,0.00
2023-10-30T01:56:59.030Z,0.00
2023-10-30T01:57:59.031Z,0.00
2023-10-30T01:58:58.998Z,0.00
2023-10-30T01:59:58.999Z,0.00
2023-10-30T02:00:59.025Z,0.00
2023-10-30T02:01:58.987Z,0.00
2023-10-30T02:02:59.061Z,0.00
2023-10-30T02:03:59.113Z,0.00
2023-10-30T02:04:58.952Z,0.00
2023-10-30T02:05:58.927Z,0.00
2023-10-30T02:06:58.946Z,0.00
2023-10-30T02:07:58.911Z,0.00
2023-10-30T02:08:58.947Z,0.00
2023-10-30T02:09:58.885Z,0.00
2023-10-30T02:10:58.874Z,0.00
2023-10-30T02:11:58.890Z,0.00
2023-10-30T02:12:58.848Z,0.00
2023-10-30T02:13:58.844Z,0.00
2023-10-30T02:14:58.830Z,0.00
2023-10-30T02:15:58.910Z,0.00
2023-10-30T02:16:58.821Z,0.00
2023-10-30T02:17:58.901Z,0.00
2023-10-30T02:18:58.793Z,0.00
2023-10-30T02:19:58.778Z,0.00
2023-10-30T02:20:58.779Z,0.00
2023-10-30T02:21:58.765Z,0.00
2023-10-30T02:22:58.745Z,0.00
2023-10-30T02:23:58.738Z,0.00
2023-10-30T02:24:58.726Z,0.00
2023-10-30T02:25:58.730Z,0.00
2023-10-30T02:26:58.712Z,0.00
2023-10-30T02:27:58.695Z,0.00
2023-10-30T02:28:58.682Z,0.00
2023-10-30T02:29:58.690Z,0.00
2023-10-30T02:30:58.677Z,0.00
2023-10-30T02:31:58.652Z,0.00
2023-10-30T02:32:58.655Z,0.00
2023-10-30T02:33:58.684Z,0.00
2023-10-30T02:34:58.634Z,0.00
2023-10-30T02:35:58.617Z,0.00
2023-10-30T02:36:58.599Z,0.00
2023-10-30T02:37:58.598Z,0.00
2023-10-30T02:38:58.575Z,0.00
2023-10-30T02:39:58.600Z,0.00
2023-10-30T02:40:58.556Z,0.00
2023-10-30T02:41:58.549Z,0.00
2023-10-30T02:42:58.537Z,0.00
2023-10-30T02:43:58.547Z,0.00
2023-10-30T02:44:58.531Z,0.00
2023-10-30T02:45:58.594Z,0.00
2023-10-30T02:46:58.516Z,0.00
2023-10-30T02:47:58.511Z,0.00
2023-10-30T02:48:58.510Z,0.00
2023-10-30T02:49:58.467Z,0.00
2023-10-30T02:50:58.459Z,0.00
2023-10-30T02:51:58.440Z,0.00
2023-10-30T02:52:58.436Z,0.00
2023-10-30T02:53:58.442Z,0.00
2023-10-30T02:54:58.409Z,0.00
2023-10-30T02:55:58.413Z,0.00
2023-10-30T02:56:58.398Z,0.00
2023-10-30T02:57:58.399Z,0.00
2023-10-30T02:58:58.383Z,0.00
2023-10-30T02:59:58.373Z,0.00
2023-10-30T03:00:58.342Z,0.00
2023-10-30T03:01:58.341Z,0.00
2023-10-30T03:02:58.420Z,0.00
2023-10-30T03:03:58.439Z,0.00
2023-10-30T03:04:58.379Z,0.00
2023-10-30T03:05:58.298Z,0.00
2023-10-30T03:06:58.282Z,0.00
2023-10-30T03:07:58.299Z,0.00
2023-10-30T03:08:58.265Z,0.00
2023-10-30T03:09:58.261Z,0.00
2023-10-30T03:10:58.252Z,0.00
2023-10-30T03:11:58.246Z,0.00
2023-10-30T03:12:58.274Z,0.00
2023-10-30T03:13:58.211Z,0.00
2023-10-30T03:14:58.208Z,0.00
2023-10-30T03:15:58.257Z,0.00
2023-10-30T03:16:58.208Z,0.00
2023-10-30T03:17:58.230Z,0.00
2023-10-30T03:18:58.155Z,0.00
2023-10-30T03:19:58.149Z,0.00
2023-10-30T03:20:58.139Z,0.00
2023-10-30T03:21:58.145Z,0.00
2023-10-30T03:22:58.128Z,0.00
2023-10-30T03:23:58.105Z,0.00
2023-10-30T03:24:58.099Z,0.00
2023-10-30T03:25:58.115Z,0.00
2023-10-30T03:26:58.100Z,0.00
2023-10-30T03:27:58.062Z,0.00
2023-10-30T03:28:58.063Z,0.00
2023-10-30T03:29:58.047Z,0.00
2023-10-30T03:30:58.043Z,0.00
2023-10-30T03:31:58.026Z,0.00
2023-10-30T03:32:58.034Z,0.00
2023-10-30T03:33:58.111Z,0.00
2023-10-30T03:34:57.985Z,0.00
2023-10-30T03:35:57.994Z,0.00
2023-10-30T03:36:57.990Z,0.00
2023-10-30T03:37:57.957Z,0.00
2023-10-30T03:38:57.963Z,0.00
2023-10-30T03:39:57.963Z,0.00
2023-10-30T03:40:57.934Z,0.00
2023-10-30T03:41:57.975Z,0.00
2023-10-30T03:42:57.949Z,0.00
2023-10-30T03:43:57.923Z,0.00
2023-10-30T03:44:57.905Z,0.00
2023-10-30T03:45:57.956Z,0.00
2023-10-30T03:46:57.869Z,0.00
2023-10-30T03:47:57.897Z,0.00
2023-10-30T03:48:57.838Z,0.00
2023-10-30T03:49:57.846Z,0.00
2023-10-30T03:50:57.829Z,0.00
2023-10-30T03:51:57.817Z,0.00
2023-10-30T03:52:57.795Z,0.00
2023-10-30T03:53:57.804Z,0.00
2023-10-30T03:54:57.789Z,0.00
2023-10-30T03:55:57.773Z,0.00
2023-10-30T03:56:57.764Z,0.00
2023-10-30T03:57:57.743Z,0.00
2023-10-30T03:58:57.749Z,0.00
2023-10-30T03:59:57.779Z,0.00
2023-10-30T04:00:57.756Z,0.00
2023-10-30T04:01:57.740Z,0.00
2023-10-30T04:02:57.820Z,0.00
2023-10-30T04:03:57.842Z,0.00
2023-10-30T04:04:57.699Z,0.00
2023-10-30T04:05:57.711Z,0.00
2023-10-30T04:06:57.668Z,0.00
2023-10-30T04:07:57.694Z,0.00
2023-10-30T04:08:57.687Z,0.00
2023-10-30T04:09:57.663Z,0.00
2023-10-30T04:10:57.659Z,0.00
2023-10-30T04:11:57.605Z,0.00
2023-10-30T04:12:57.610Z,0.00
2023-10-30T04:13:57.584Z,0.00
2023-10-30T04:14:57.568Z,0.00
2023-10-30T04:15:57.595Z,0.00
2023-10-30T04:16:57.542Z,0.00
2023-10-30T04:17:57.645Z,0.00
2023-10-30T04:18:57.522Z,0.00
2023-10-30T04:19:57.516Z,0.00
2023-10-30T04:20:57.514Z,0.00
2023-10-30T04:21:57.581Z,0.00
2023-10-30T04:22:57.495Z,0.00
2023-10-30T04:23:57.474Z,0.00
2023-10-30T04:24:57.464Z,0.00
2023-10-30T04:25:57.450Z,0.00
2023-10-30T04:26:57.454Z,0.00
2023-10-30T04:27:57.436Z,0.00
2023-10-30T04:28:57.446Z,0.00
2023-10-30T04:29:57.409Z,0.00
2023-10-30T04:30:57.393Z,0.00
2023-10-30T04:31:57.418Z,0.00
2023-10-30T04:32:57.384Z,0.00
2023-10-30T04:33:57.368Z,0.00
2023-10-30T04:34:57.373Z,0.00
2023-10-30T04:35:57.362Z,0.00
2023-10-30T04:36:57.357Z,0.00
2023-10-30T04:37:57.330Z,0.00
2023-10-30T04:38:57.314Z,0.00
2023-10-30T04:39:57.311Z,0.00
2023-10-30T04:40:57.309Z,0.00
2023-10-30T04:41:57.299Z,0.00
2023-10-30T04:42:57.278Z,0.00
2023-10-30T04:43:57.266Z,0.00
2023-10-30T04:44:57.261Z,0.00
2023-10-30T04:45:57.339Z,0.00
2023-10-30T04:46:57.223Z,0.00
2023-10-30T04:47:57.252Z,0.00
2023-10-30T04:48:57.202Z,0.00
2023-10-30T04:49:57.221Z,0.00
2023-10-30T04:50:57.207Z,0.00
2023-10-30T04:51:57.186Z,0.00
2023-10-30T04:52:57.162Z,0.00
2023-10-30T04:53:57.158Z,0.00
2023-10-30T04:54:57.157Z,0.00
2023-10-30T04:55:57.141Z,0.00
2023-10-30T04:56:57.119Z,0.00
2023-10-30T04:57:57.110Z,0.00
2023-10-30T04:58:57.101Z,0.00
2023-10-30T04:59:57.109Z,0.00
2023-10-30T05:00:57.079Z,0.00
2023-10-30T05:01:57.104Z,0.00
2023-10-30T05:02:57.104Z,0.00
2023-10-30T05:03:57.129Z,0.00
2023-10-30T05:04:57.055Z,0.00
2023-10-30T05:05:57.040Z,0.00
2023-10-30T05:06:57.019Z,0.00
2023-10-30T05:07:57.011Z,0.00
2023-10-30T05:08:57.007Z,0.00
2023-10-30T05:09:57.067Z,0.00
2023-10-30T05:10:56.967Z,0.00
2023-10-30T05:11:56.964Z,0.00
2023-10-30T05:12:56.964Z,0.00
2023-10-30T05:13:56.988Z,0.00
2023-10-30T05:14:56.937Z,0.00
2023-10-30T05:15:56.983Z,0.00
2023-10-30T05:16:56.909Z,0.00
2023-10-30T05:17:56.952Z,0.00
2023-10-30T05:18:56.897Z,0.00
2023-10-30T05:19:56.891Z,0.00
2023-10-30T05:20:56.904Z,0.00
2023-10-30T05:21:56.860Z,0.00
2023-10-30T05:22:56.867Z,0.00
2023-10-30T05:23:56.841Z,0.00
2023-10-30T05:24:56.817Z,0.00
2023-10-30T05:25:56.811Z,0.00
2023-10-30T05:26:56.812Z,0.00
2023-10-30T05:27:56.889Z,0.00
2023-10-30T05:28:56.781Z,0.00
2023-10-30T05:29:56.789Z,0.00
2023-10-30T05:30:56.909Z,0.00
2023-10-30T05:31:56.830Z,0.00
2023-10-30T05:32:56.796Z,0.00
2023-10-30T05:33:56.730Z,0.00
2023-10-30T05:34:56.734Z,0.00
2023-10-30T05:35:56.704Z,0.00
2023-10-30T05:36:56.710Z,0.00
2023-10-30T05:37:56.694Z,0.00
2023-10-30T05:38:56.671Z,0.00
2023-10-30T05:39:56.711Z,0.00
2023-10-30T05:40:56.647Z,0.00
2023-10-30T05:41:56.691Z,0.00
2023-10-30T05:42:56.646Z,0.00
2023-10-30T05:43:56.635Z,0.00
2023-10-30T05:44:56.606Z,0.00
2023-10-30T05:45:56.704Z,0.00
2023-10-30T05:46:56.621Z,0.00
2023-10-30T05:47:56.622Z,0.00
2023-10-30T05:48:56.573Z,0.00
2023-10-30T05:49:59.250Z,0.00
2023-10-30T05:50:56.562Z,0.00
2023-10-30T05:51:56.535Z,0.00
2023-10-30T05:52:56.522Z,0.00
2023-10-30T05:53:56.514Z,0.00
2023-10-30T05:54:56.501Z,0.00
2023-10-30T05:55:56.526Z,0.00
2023-10-30T05:56:56.480Z,0.00
2023-10-30T05:57:56.473Z,0.00
2023-10-30T05:58:56.500Z,0.00
2023-10-30T05:59:56.478Z,0.00
2023-10-30T06:00:56.453Z,0.00
2023-10-30T06:01:56.484Z,0.00
2023-10-30T06:02:56.461Z,0.00
2023-10-30T06:03:56.509Z,0.00
2023-10-30T06:04:56.415Z,0.00
2023-10-30T06:05:56.384Z,0.00
2023-10-30T06:06:56.376Z,0.00
2023-10-30T06:07:56.370Z,0.00
2023-10-30T06:08:56.358Z,0.00
2023-10-30T06:09:56.388Z,0.00
2023-10-30T06:10:56.336Z,0.00
2023-10-30T06:11:56.326Z,0.00
2023-10-30T06:12:56.319Z,0.00
2023-10-30T06:13:56.344Z,0.00
2023-10-30T06:14:56.306Z,0.00
2023-10-30T06:15:56.378Z,0.00
2023-10-30T06:16:56.280Z,0.00
2023-10-30T06:17:56.364Z,0.00
2023-10-30T06:18:56.388Z,0.00
2023-10-30T06:19:56.246Z,0.00
2023-10-30T06:20:56.222Z,0.00
2023-10-30T06:21:56.212Z,0.00
2023-10-30T06:22:56.207Z,0.00
2023-10-30T06:23:56.214Z,0.00
2023-10-30T06:24:56.226Z,0.00
2023-10-30T06:25:56.173Z,0.00
2023-10-30T06:26:56.181Z,0.00
2023-10-30T06:27:56.173Z,0.00
2023-10-30T06:28:56.156Z,0.00
2023-10-30T06:29:56.126Z,0.00
2023-10-30T06:30:56.143Z,0.00
2023-10-30T06:31:56.109Z,0.00
2023-10-30T06:32:56.181Z,0.00
2023-10-30T06:33:56.262Z,0.00
2023-10-30T06:34:56.079Z,0.00
2023-10-30T06:35:56.023Z,1.00
2023-10-30T06:36:56.079Z,1.00
2023-10-30T06:37:56.030Z,1.00
2023-10-30T06:38:55.995Z,1.00
2023-10-30T06:39:55.983Z,1.00
2023-10-30T06:40:56.008Z,0.00
2023-10-30T06:41:56.102Z,0.00
2023-10-30T06:42:56.060Z,0.00
2023-10-30T06:43:55.976Z,0.00
2023-10-30T06:44:56.071Z,0.00
2023-10-30T06:45:56.061Z,0.00
2023-10-30T06:46:58.015Z,0.00
2023-10-30T06:47:55.986Z,0.00
2023-10-30T06:48:55.946Z,0.00
2023-10-30T06:49:55.907Z,0.00
2023-10-30T06:50:55.863Z,1.00
2023-10-30T06:51:55.847Z,1.00
2023-10-30T06:52:55.824Z,1.00
2023-10-30T06:53:55.833Z,1.00
2023-10-30T06:54:55.879Z,0.00
2023-10-30T06:55:55.866Z,0.00
2023-10-30T06:56:55.862Z,0.00
2023-10-30T06:57:55.883Z,0.00
2023-10-30T06:58:55.817Z,0.00
2023-10-30T06:59:55.802Z,0.00
2023-10-30T07:00:55.915Z,0.00
2023-10-30T07:01:55.791Z,0.00
2023-10-30T07:02:55.858Z,0.00
2023-10-30T07:03:55.905Z,0.00
2023-10-30T07:04:55.788Z,0.00
2023-10-30T07:05:55.754Z,0.00
2023-10-30T07:06:55.792Z,0.00
2023-10-30T07:07:55.725Z,0.00
2023-10-30T07:08:55.708Z,0.00
2023-10-30T07:09:55.725Z,0.00
2023-10-30T07:10:55.704Z,0.00
2023-10-30T07:11:55.675Z,0.00
2023-10-30T07:12:55.690Z,0.00
2023-10-30T07:13:55.654Z,0.00
2023-10-30T07:14:56.831Z,0.00
2023-10-30T07:15:55.691Z,0.00
2023-10-30T07:17:04.174Z,1.00
2023-10-30T07:17:56.614Z,1.00
2023-10-30T07:18:55.650Z,0.00
2023-10-30T07:19:55.677Z,0.00
2023-10-30T07:20:55.582Z,0.00
2023-10-30T07:21:55.606Z,0.00
2023-10-30T07:22:55.559Z,0.00
2023-10-30T07:23:55.562Z,0.00
2023-10-30T07:24:55.609Z,0.00
2023-10-30T07:25:55.535Z,0.00
2023-10-30T07:26:55.515Z,0.00
2023-10-30T07:27:55.478Z,1.00
2023-10-30T07:28:55.455Z,1.00
2023-10-30T07:29:55.478Z,0.00
2023-10-30T07:30:55.582Z,0.00
2023-10-30T07:31:55.457Z,0.00
2023-10-30T07:32:55.555Z,0.00
2023-10-30T07:33:55.496Z,0.00
2023-10-30T07:34:55.392Z,2.00
2023-10-30T07:35:55.364Z,2.00
2023-10-30T07:36:55.408Z,2.00
2023-10-30T07:37:55.353Z,2.00
2023-10-30T07:38:55.351Z,3.00
2023-10-30T07:39:55.345Z,1.00
2023-10-30T07:40:55.312Z,1.00
2023-10-30T07:41:55.302Z,1.00
2023-10-30T07:42:55.354Z,3.00
2023-10-30T07:43:55.301Z,2.00
2023-10-30T07:44:55.276Z,1.00
2023-10-30T07:45:55.284Z,2.00
2023-10-30T07:46:55.332Z,2.00
2023-10-30T07:47:55.259Z,3.00
2023-10-30T07:48:55.244Z,2.00
2023-10-30T07:49:55.208Z,1.00
2023-10-30T07:50:55.218Z,2.00
2023-10-30T07:51:55.248Z,1.00
2023-10-30T07:52:55.213Z,1.00
2023-10-30T07:53:55.166Z,1.00
2023-10-30T07:54:55.180Z,2.00
2023-10-30T07:55:55.161Z,2.00
2023-10-30T07:56:55.153Z,1.00
2023-10-30T07:57:55.153Z,2.00
2023-10-30T07:58:55.123Z,2.00
2023-10-30T07:59:55.106Z,2.00
2023-10-30T08:00:58.925Z,1.00
2023-10-30T08:01:55.132Z,1.00
2023-10-30T08:02:55.133Z,2.00
2023-10-30T08:03:55.152Z,2.00
2023-10-30T08:04:55.193Z,1.00
2023-10-30T08:05:55.057Z,2.00
2023-10-30T08:06:55.083Z,2.00
2023-10-30T08:07:55.016Z,2.00
2023-10-30T08:08:55.015Z,1.00
2023-10-30T08:09:55.054Z,1.00
2023-10-30T08:10:55.124Z,1.00
2023-10-30T08:11:54.974Z,2.00
2023-10-30T08:12:55.005Z,2.00
2023-10-30T08:13:54.954Z,2.00
2023-10-30T08:14:54.948Z,2.00
2023-10-30T08:15:55.006Z,2.00
2023-10-30T08:16:54.953Z,2.00
2023-10-30T08:17:54.913Z,2.00
2023-10-30T08:18:54.933Z,2.00
2023-10-30T08:19:54.921Z,2.00
2023-10-30T08:20:55.297Z,2.00
2023-10-30T08:21:54.891Z,2.00
2023-10-30T08:22:54.864Z,3.00
2023-10-30T08:23:54.845Z,3.00
2023-10-30T08:24:54.888Z,3.00
2023-10-30T08:25:54.854Z,6.00
2023-10-30T08:26:54.824Z,7.00
2023-10-30T08:27:54.859Z,4.00
2023-10-30T08:28:54.804Z,6.00
2023-10-30T08:29:54.799Z,6.00
2023-10-30T08:30:54.824Z,4.00
2023-10-30T08:31:54.791Z,5.00
2023-10-30T08:32:54.810Z,9.00
2023-10-30T08:33:54.844Z,3.00
2023-10-30T08:34:54.760Z,4.00
2023-10-30T08:35:54.722Z,4.00
2023-10-30T08:36:54.828Z,3.00
2023-10-30T08:37:54.696Z,5.00
2023-10-30T08:38:55.878Z,3.00
2023-10-30T08:39:54.711Z,4.00
2023-10-30T08:40:54.717Z,6.00
2023-10-30T08:41:54.682Z,4.00
2023-10-30T08:42:54.689Z,3.00
2023-10-30T08:43:54.654Z,4.00
2023-10-30T08:44:54.636Z,4.00
2023-10-30T08:45:54.642Z,6.00
2023-10-30T08:46:54.716Z,6.00
2023-10-30T08:48:04.643Z,6.00
2023-10-30T08:48:55.630Z,5.00
2023-10-30T08:49:54.586Z,5.00
2023-10-30T08:50:54.563Z,4.00
2023-10-30T08:52:03.971Z,6.00
2023-10-30T08:52:55.798Z,6.00
2023-10-30T08:53:54.544Z,12.00
2023-10-30T08:54:54.557Z,6.00
2023-10-30T08:55:55.420Z,6.00
2023-10-30T08:57:01.182Z,6.00
2023-10-30T08:57:55.524Z,8.00
2023-10-30T08:58:54.480Z,4.00
2023-10-30T08:59:54.465Z,4.00
2023-10-30T09:00:54.481Z,6.00
2023-10-30T09:01:54.470Z,6.00
2023-10-30T09:02:54.494Z,4.00
2023-10-30T09:03:54.518Z,4.00
2023-10-30T09:04:54.579Z,10.00
2023-10-30T09:05:54.577Z,7.00
2023-10-30T09:06:54.464Z,6.00
2023-10-30T09:07:54.374Z,9.00
2023-10-30T09:08:54.369Z,6.00
2023-10-30T09:09:54.416Z,4.00
2023-10-30T09:10:54.352Z,7.00
2023-10-30T09:11:54.366Z,6.00
2023-10-30T09:12:54.357Z,4.00
2023-10-30T09:13:54.311Z,5.00
2023-10-30T09:14:54.308Z,5.00
2023-10-30T09:15:54.348Z,5.00
2023-10-30T09:16:54.505Z,6.00
2023-10-30T09:17:54.297Z,6.00
2023-10-30T09:18:54.301Z,8.00
2023-10-30T09:19:54.251Z,9.00
2023-10-30T09:20:54.264Z,11.00
2023-10-30T09:21:56.306Z,8.00
2023-10-30T09:22:54.219Z,7.00
2023-10-30T09:23:54.206Z,7.00
2023-10-30T09:24:54.240Z,6.00
2023-10-30T09:25:54.193Z,7.00
2023-10-30T09:26:54.185Z,5.00
2023-10-30T09:27:54.226Z,5.00
2023-10-30T09:28:54.155Z,6.00
2023-10-30T09:29:54.142Z,5.00
2023-10-30T09:30:54.221Z,6.00
2023-10-30T09:31:54.122Z,6.00
2023-10-30T09:32:54.145Z,7.00
2023-10-30T09:33:54.163Z,10.00
2023-10-30T09:34:54.144Z,8.00
2023-10-30T09:35:54.095Z,9.00
2023-10-30T09:36:54.148Z,10.00
2023-10-30T09:37:54.058Z,9.00
2023-10-30T09:38:54.046Z,10.00
2023-10-30T09:39:54.065Z,15.00
2023-10-30T09:40:54.047Z,14.00
2023-10-30T09:41:54.012Z,10.00
2023-10-30T09:42:54.022Z,12.00
2023-10-30T09:43:53.988Z,16.00
2023-10-30T09:44:54.006Z,15.00
2023-10-30T09:45:54.083Z,17.00
2023-10-30T09:46:53.960Z,15.00
2023-10-30T09:47:54.005Z,18.00
2023-10-30T09:48:54.014Z,24.00
2023-10-30T09:49:53.950Z,24.00
2023-10-30T09:50:53.933Z,24.00
2023-10-30T09:51:53.987Z,17.00
2023-10-30T09:52:53.903Z,17.00
2023-10-30T09:53:53.895Z,18.00
2023-10-30T09:54:53.967Z,21.00
2023-10-30T09:55:53.866Z,20.00
2023-10-30T09:56:53.858Z,19.00
2023-10-30T09:57:53.946Z,20.00
2023-10-30T09:58:54.086Z,21.00
2023-10-30T09:59:53.823Z,26.00
2023-10-30T10:00:53.951Z,24.00
2023-10-30T10:01:53.938Z,27.00
2023-10-30T10:02:53.980Z,26.00
2023-10-30T10:03:53.911Z,24.00
2023-10-30T10:04:53.796Z,30.00
2023-10-30T10:05:55.464Z,35.00
2023-10-30T10:06:53.823Z,32.00
2023-10-30T10:07:53.745Z,28.00
2023-10-30T10:08:53.726Z,28.00
2023-10-30T10:09:53.801Z,24.00
2023-10-30T10:10:53.712Z,19.00
2023-10-30T10:11:53.712Z,18.00
2023-10-30T10:12:53.792Z,27.00
2023-10-30T10:14:04.391Z,24.00
2023-10-30T10:14:54.660Z,26.00
2023-10-30T10:15:53.703Z,29.00
2023-10-30T10:16:53.660Z,25.00
2023-10-30T10:17:53.699Z,44.00
2023-10-30T10:18:53.685Z,15.00
2023-10-30T10:19:53.622Z,21.00
2023-10-30T10:20:53.599Z,26.00
2023-10-30T10:21:53.678Z,45.00
2023-10-30T10:22:53.602Z,30.00
2023-10-30T10:23:53.653Z,111.00
2023-10-30T10:24:53.678Z,111.00
2023-10-30T10:25:53.544Z,41.00
2023-10-30T10:26:53.560Z,39.00
2023-10-30T10:27:53.561Z,48.00
2023-10-30T10:28:53.522Z,177.00
2023-10-30T10:29:53.619Z,233.00
2023-10-30T10:30:53.529Z,30.00
2023-10-30T10:31:53.526Z,41.00
2023-10-30T10:32:53.538Z,81.00
2023-10-30T10:33:53.619Z,88.00
2023-10-30T10:34:53.742Z,85.00
2023-10-30T10:35:53.458Z,160.00
2023-10-30T10:36:53.501Z,182.00
2023-10-30T10:37:53.424Z,31.00
2023-10-30T10:38:53.416Z,136.00
2023-10-30T10:39:53.767Z,32.00
2023-10-30T10:40:53.399Z,134.00
2023-10-30T10:41:53.380Z,95.00
2023-10-30T10:42:53.470Z,38.00
2023-10-30T10:43:53.366Z,166.00
2023-10-30T10:44:53.355Z,36.00
2023-10-30T10:45:53.443Z,88.00
2023-10-30T10:46:53.435Z,40.00
2023-10-30T10:47:53.366Z,55.00
2023-10-30T10:48:53.408Z,91.00
2023-10-30T10:49:53.330Z,67.00
2023-10-30T10:50:53.301Z,79.00
2023-10-30T10:51:53.320Z,56.00
2023-10-30T10:52:53.260Z,113.00
2023-10-30T10:53:53.268Z,31.00
2023-10-30T10:54:53.278Z,80.00
2023-10-30T10:55:53.229Z,49.00
2023-10-30T10:56:53.219Z,146.00
2023-10-30T10:57:53.259Z,50.00
2023-10-30T10:58:53.191Z,47.00
2023-10-30T10:59:53.211Z,95.00
2023-10-30T11:00:53.253Z,219.00
2023-10-30T11:01:53.229Z,115.00
2023-10-30T11:02:53.169Z,48.00
2023-10-30T11:03:53.287Z,46.00
2023-10-30T11:04:53.142Z,154.00
2023-10-30T11:05:53.123Z,51.00
2023-10-30T11:06:53.158Z,78.00
2023-10-30T11:07:53.125Z,178.00
2023-10-30T11:08:53.113Z,239.00
2023-10-30T11:09:53.394Z,51.00
2023-10-30T11:10:53.123Z,193.00
2023-10-30T11:11:53.061Z,42.00
2023-10-30T11:12:53.068Z,107.00
2023-10-30T11:13:53.071Z,103.00
2023-10-30T11:14:53.060Z,33.00
2023-10-30T11:15:53.120Z,46.00
2023-10-30T11:16:53.039Z,36.00
2023-10-30T11:17:53.090Z,78.00
2023-10-30T11:18:53.040Z,39.00
2023-10-30T11:19:52.974Z,127.00
2023-10-30T11:20:52.956Z,101.00
2023-10-30T11:21:52.972Z,27.00
2023-10-30T11:22:52.956Z,57.00
2023-10-30T11:23:52.934Z,86.00
2023-10-30T11:24:52.945Z,85.00
2023-10-30T11:25:52.912Z,107.00
2023-10-30T11:26:52.899Z,185.00
2023-10-30T11:27:52.912Z,96.00
2023-10-30T11:28:52.880Z,56.00
2023-10-30T11:29:52.881Z,194.00
2023-10-30T11:30:52.919Z,46.00
2023-10-30T11:31:52.913Z,76.00
2023-10-30T11:32:52.904Z,99.00
2023-10-30T11:33:52.922Z,129.00
2023-10-30T11:34:52.818Z,29.00
2023-10-30T11:35:52.838Z,108.00
2023-10-30T11:36:52.847Z,39.00
2023-10-30T11:37:52.819Z,71.00
2023-10-30T11:38:52.799Z,107.00
2023-10-30T11:39:52.818Z,43.00
2023-10-30T11:40:52.772Z,81.00
2023-10-30T11:41:52.768Z,87.00
2023-10-30T11:42:52.760Z,124.00
2023-10-30T11:43:52.729Z,49.00
2023-10-30T11:44:52.715Z,60.00
2023-10-30T11:45:52.780Z,101.00
2023-10-30T11:46:52.748Z,104.00
2023-10-30T11:47:52.700Z,107.00
2023-10-30T11:48:52.688Z,130.00
2023-10-30T11:49:52.671Z,72.00
2023-10-30T11:50:52.670Z,102.00
2023-10-30T11:51:52.687Z,71.00
2023-10-30T11:52:52.639Z,78.00
2023-10-30T11:53:52.622Z,241.00
2023-10-30T11:54:53.136Z,122.00
2023-10-30T11:55:52.627Z,28.00
2023-10-30T11:56:52.588Z,103.00
2023-10-30T11:57:52.618Z,42.00
2023-10-30T11:58:52.571Z,43.00
2023-10-30T11:59:52.591Z,49.00
2023-10-30T12:00:52.602Z,59.00
2023-10-30T12:01:52.592Z,32.00
2023-10-30T12:02:52.573Z,79.00
2023-10-30T12:03:52.642Z,43.00
2023-10-30T12:04:52.562Z,16.00
2023-10-30T12:05:52.502Z,24.00
2023-10-30T12:06:52.506Z,24.00
2023-10-30T12:07:52.487Z,29.00
2023-10-30T12:08:52.487Z,19.00
2023-10-30T12:09:52.497Z,22.00
2023-10-30T12:10:52.438Z,28.00
2023-10-30T12:11:52.432Z,121.00
2023-10-30T12:12:52.436Z,53.00
2023-10-30T12:13:52.422Z,40.00
2023-10-30T12:14:52.425Z,34.00
2023-10-30T12:15:52.418Z,28.00
2023-10-30T12:16:52.452Z,26.00
2023-10-30T12:17:52.490Z,36.00
2023-10-30T12:18:52.407Z,31.00
2023-10-30T12:19:52.359Z,21.00
2023-10-30T12:20:52.333Z,28.00
2023-10-30T12:21:52.420Z,22.00
2023-10-30T12:22:52.328Z,87.00
2023-10-30T12:23:52.335Z,29.00
2023-10-30T12:24:52.342Z,33.00
2023-10-30T12:25:52.287Z,31.00
2023-10-30T12:26:52.269Z,46.00
2023-10-30T12:27:52.576Z,31.00
2023-10-30T12:28:52.262Z,36.00
2023-10-30T12:29:52.249Z,19.00
2023-10-30T12:30:52.290Z,29.00
2023-10-30T12:31:52.277Z,37.00
2023-10-30T12:32:52.240Z,29.00
2023-10-30T12:33:52.256Z,65.00
2023-10-30T12:34:54.816Z,25.00
2023-10-30T12:35:52.181Z,31.00
2023-10-30T12:36:52.225Z,38.00
2023-10-30T12:37:52.205Z,29.00
2023-10-30T12:38:52.158Z,54.00
2023-10-30T12:39:52.179Z,23.00
2023-10-30T12:40:52.124Z,56.00
2023-10-30T12:41:52.170Z,25.00
2023-10-30T12:42:52.162Z,49.00
2023-10-30T12:43:52.106Z,48.00
2023-10-30T12:44:52.084Z,43.00
2023-10-30T12:45:52.125Z,50.00
2023-10-30T12:46:52.115Z,35.00
2023-10-30T12:47:52.211Z,27.00
2023-10-30T12:48:52.079Z,32.00
2023-10-30T12:49:52.039Z,29.00
2023-10-30T12:50:52.163Z,32.00
2023-10-30T12:51:52.070Z,29.00
2023-10-30T12:52:51.998Z,26.00
2023-10-30T12:53:52.012Z,25.00
2023-10-30T12:54:52.020Z,27.00
2023-10-30T12:55:51.980Z,31.00
2023-10-30T12:56:51.988Z,35.00
2023-10-30T12:57:52.003Z,31.00
2023-10-30T12:58:51.950Z,28.00
2023-10-30T12:59:51.930Z,39.00
2023-10-30T13:02:51.999Z,28.00
2023-10-30T13:03:52.042Z,23.00
2023-10-30T13:04:52.185Z,25.00
2023-10-30T13:05:51.885Z,25.00
2023-10-30T13:06:51.895Z,27.00
2023-10-30T13:07:51.852Z,27.00
2023-10-30T13:08:51.846Z,29.00
2023-10-30T13:09:51.891Z,26.00
2023-10-30T13:10:51.832Z,25.00
2023-10-30T13:11:51.805Z,24.00